Time;durP1;ratioP1;P1;durP2;ratioP2;P2;SDS_P1;SDS_P2;PMS_P1;PMS_P2;Temp;Humidity;BMP_temperature;BMP_pressure;BME280_temperature;BME280_humidity;BME280_pressure;Samples;Min_cycle;Max_cycle;Signal;HPM_P1;HPM_P2
2024/02/13 00:01:51;;;;;;;9.20;4.33;;;4.20;99.90;;;;;;5036277;28;20016;-82
2024/02/13 00:04:20;;;;;;;11.57;3.87;;;4.30;99.90;;;;;;5036199;28;20086;-82
2024/02/13 00:06:46;;;;;;;12.20;4.37;;;4.20;99.90;;;;;;5036287;28;20075;-82
2024/02/13 00:09:13;;;;;;;12.90;4.47;;;4.20;99.90;;;;;;5036252;28;20104;-82
2024/02/13 00:11:39;;;;;;;8.40;4.07;;;4.20;99.90;;;;;;5036120;28;20027;-82
2024/02/13 00:14:07;;;;;;;15.63;4.73;;;4.20;99.90;;;;;;5036231;28;20444;-82
2024/02/13 00:16:37;;;;;;;12.97;4.73;;;4.10;99.90;;;;;;5036052;28;20469;-82
2024/02/13 00:19:03;;;;;;;7.87;3.93;;;4.10;99.90;;;;;;5036293;28;20017;-82
2024/02/13 00:21:31;;;;;;;13.10;4.80;;;4.10;99.90;;;;;;5035708;28;20029;-82
2024/02/13 00:23:57;;;;;;;11.20;4.77;;;4.10;99.90;;;;;;5053996;28;20530;-82
2024/02/13 00:26:23;;;;;;;9.27;4.63;;;4.10;99.90;;;;;;5054325;28;20477;-81
2024/02/13 00:28:49;;;;;;;13.97;4.53;;;4.00;99.90;;;;;;5036109;28;20017;-82
2024/02/13 00:31:15;;;;;;;14.80;4.30;;;4.10;99.90;;;;;;5053154;28;20021;-82
2024/02/13 00:33:40;;;;;;;11.00;4.67;;;4.00;99.90;;;;;;5032319;28;20047;-82
2024/02/13 00:36:09;;;;;;;14.10;5.23;;;4.10;99.90;;;;;;5032424;28;20531;-82
2024/02/13 00:38:35;;;;;;;12.97;5.37;;;4.00;99.90;;;;;;5033788;28;20096;-82
2024/02/13 00:41:04;;;;;;;12.60;5.73;;;3.90;99.90;;;;;;5033731;28;20108;-82
2024/02/13 00:43:32;;;;;;;12.93;5.83;;;4.00;99.90;;;;;;5033990;28;20021;-82
2024/02/13 00:45:58;;;;;;;12.07;5.03;;;4.10;99.90;;;;;;5029671;28;20053;-81
2024/02/13 00:48:24;;;;;;;10.37;5.47;;;3.90;99.90;;;;;;5032319;28;20578;-82
2024/02/13 00:50:52;;;;;;;12.87;4.90;;;4.00;99.90;;;;;;5032431;28;20025;-82
2024/02/13 00:53:18;;;;;;;10.93;5.30;;;4.10;99.90;;;;;;5032224;28;20022;-83
2024/02/13 00:55:43;;;;;;;16.63;5.73;;;4.00;99.90;;;;;;5032352;28;20075;-82
2024/02/13 00:58:09;;;;;;;12.43;5.93;;;3.90;99.90;;;;;;5033587;28;20081;-82
2024/02/13 01:00:35;;;;;;;13.73;5.90;;;3.90;99.90;;;;;;5031883;28;20026;-82
2024/02/13 01:03:04;;;;;;;13.63;6.63;;;3.90;99.90;;;;;;5031959;28;20021;-82
2024/02/13 01:05:30;;;;;;;17.17;6.23;;;3.90;99.90;;;;;;5033330;28;20104;-82
2024/02/13 01:07:57;;;;;;;17.50;7.17;;;3.90;99.90;;;;;;5031960;28;20519;-81
2024/02/13 01:10:23;;;;;;;20.17;6.73;;;3.90;99.90;;;;;;5032804;28;20052;-82
2024/02/13 01:12:50;;;;;;;15.77;7.50;;;3.90;99.90;;;;;;5033263;28;20473;-82
2024/02/13 01:15:16;;;;;;;18.73;7.77;;;3.90;99.90;;;;;;5032922;28;20017;-82
2024/02/13 01:17:42;;;;;;;20.43;8.80;;;3.90;99.90;;;;;;5031828;28;20067;-82
2024/02/13 01:20:11;;;;;;;16.40;8.87;;;3.90;99.90;;;;;;5031681;28;20021;-82
2024/02/13 01:22:37;;;;;;;19.50;8.90;;;3.80;99.90;;;;;;5031882;28;20044;-82
2024/02/13 01:25:05;;;;;;;15.73;9.90;;;3.80;99.90;;;;;;5033313;28;20057;-82
2024/02/13 01:27:33;;;;;;;15.83;9.60;;;3.80;99.90;;;;;;5031771;28;20018;-82
2024/02/13 01:29:59;;;;;;;20.03;9.67;;;3.90;99.90;;;;;;5028848;28;20029;-82
2024/02/13 01:32:25;;;;;;;20.53;11.20;;;3.90;99.90;;;;;;5030962;28;20041;-82
2024/02/13 01:34:51;;;;;;;16.90;10.57;;;3.90;99.90;;;;;;5031709;28;20390;-82
2024/02/13 01:37:16;;;;;;;18.43;11.03;;;3.90;99.90;;;;;;5031600;28;20117;-82
2024/02/13 01:39:42;;;;;;;20.87;10.30;;;3.90;99.90;;;;;;5032684;28;20036;-81
2024/02/13 01:42:09;;;;;;;20.40;11.07;;;3.90;99.90;;;;;;5032445;28;20021;-81
2024/02/13 01:44:35;;;;;;;23.77;12.07;;;3.90;99.90;;;;;;5031037;28;20034;-82
2024/02/13 01:47:02;;;;;;;19.10;12.23;;;3.80;99.90;;;;;;5032055;28;20045;-82
2024/02/13 01:49:28;;;;;;;22.07;12.63;;;3.80;99.90;;;;;;5031433;28;20469;-82
2024/02/13 01:51:55;;;;;;;21.53;12.13;;;3.80;99.90;;;;;;5031087;28;20037;-82
2024/02/13 01:54:23;;;;;;;22.63;12.33;;;3.80;99.90;;;;;;5032756;28;20086;-82
2024/02/13 01:56:52;;;;;;;22.80;13.23;;;3.70;99.90;;;;;;5032581;28;20030;-82
2024/02/13 01:59:20;;;;;;;24.07;14.10;;;3.80;99.90;;;;;;5031606;28;20481;-82
2024/02/13 02:01:47;;;;;;;21.47;13.20;;;3.80;99.90;;;;;;5031122;28;20058;-82
2024/02/13 02:04:14;;;;;;;28.00;14.80;;;3.80;99.90;;;;;;5031430;28;20026;-82
2024/02/13 02:06:41;;;;;;;25.70;14.30;;;3.80;99.90;;;;;;5032698;28;20022;-83
2024/02/13 02:09:07;;;;;;;25.80;14.47;;;3.80;99.90;;;;;;5031360;28;20030;-83
2024/02/13 02:11:34;;;;;;;26.87;14.33;;;3.80;99.90;;;;;;5032199;28;20073;-83
2024/02/13 02:14:03;;;;;;;28.20;15.33;;;3.80;99.90;;;;;;5031593;28;20032;-82
2024/02/13 02:16:28;;;;;;;28.47;15.27;;;3.80;99.90;;;;;;5032733;28;20061;-82
2024/02/13 02:18:57;;;;;;;24.37;14.43;;;3.80;99.90;;;;;;5031340;28;20095;-82
2024/02/13 02:21:23;;;;;;;20.87;13.77;;;3.90;99.90;;;;;;5032195;28;20079;-83
2024/02/13 02:23:48;;;;;;;25.13;14.23;;;3.80;99.90;;;;;;5031209;28;20025;-82
2024/02/13 02:26:14;;;;;;;29.00;15.03;;;3.80;99.90;;;;;;5032208;28;20504;-83
2024/02/13 02:28:40;;;;;;;28.67;15.40;;;3.80;99.90;;;;;;5031244;28;20125;-82
2024/02/13 02:31:06;;;;;;;24.37;14.77;;;3.80;99.90;;;;;;5032670;28;20433;-83
2024/02/13 02:33:31;;;;;;;29.60;16.27;;;3.70;99.90;;;;;;5045976;28;20103;-82
2024/02/13 02:35:57;;;;;;;29.57;14.73;;;3.80;99.90;;;;;;5051926;28;20036;-82
2024/02/13 02:38:23;;;;;;;28.50;15.33;;;3.80;99.90;;;;;;5052209;28;20064;-82
2024/02/13 02:40:49;;;;;;;29.50;16.23;;;3.80;99.90;;;;;;5052197;28;20057;-82
2024/02/13 02:43:15;;;;;;;29.47;16.03;;;3.80;99.90;;;;;;5052334;28;20021;-82
2024/02/13 02:45:41;;;;;;;24.57;15.80;;;3.80;99.90;;;;;;5051915;28;20046;-82
2024/02/13 02:48:07;;;;;;;25.13;15.20;;;3.70;99.90;;;;;;5034026;28;20040;-82
2024/02/13 02:50:34;;;;;;;28.10;16.33;;;3.70;99.90;;;;;;5033972;28;20029;-82
2024/02/13 02:53:01;;;;;;;28.27;16.70;;;3.90;99.90;;;;;;5034290;28;20017;-82
2024/02/13 02:55:27;;;;;;;26.37;16.57;;;3.80;99.90;;;;;;5051471;28;20028;-82
2024/02/13 02:57:53;;;;;;;25.20;16.30;;;3.80;99.90;;;;;;5037442;28;20454;-82
2024/02/13 03:00:20;;;;;;;28.30;17.23;;;3.80;99.90;;;;;;5037562;28;20029;-82
2024/02/13 03:02:46;;;;;;;30.67;17.07;;;3.80;99.90;;;;;;5037769;28;20043;-82
2024/02/13 03:05:12;;;;;;;26.13;16.97;;;3.80;99.90;;;;;;5037429;28;20028;-82
2024/02/13 03:07:38;;;;;;;27.63;16.33;;;3.80;99.90;;;;;;5055299;28;20031;-82
2024/02/13 03:10:08;;;;;;;30.37;17.07;;;3.80;99.90;;;;;;5037397;28;20422;-82
2024/02/13 03:12:35;;;;;;;33.63;17.87;;;3.80;99.90;;;;;;5037652;28;20087;-83
2024/02/13 03:15:01;;;;;;;29.87;17.23;;;3.80;99.90;;;;;;5037228;28;20024;-82
2024/02/13 03:17:28;;;;;;;29.07;18.33;;;3.80;99.90;;;;;;5054861;28;20029;-82
2024/02/13 03:19:53;;;;;;;28.53;18.17;;;3.80;99.90;;;;;;5037072;28;20104;-82
2024/02/13 03:22:19;;;;;;;30.33;17.67;;;3.80;99.90;;;;;;5055080;28;20100;-82
2024/02/13 03:24:45;;;;;;;32.50;18.23;;;3.80;99.90;;;;;;5054970;28;20025;-82
2024/02/13 03:27:12;;;;;;;31.30;18.30;;;3.80;99.90;;;;;;5054963;28;20539;-82
2024/02/13 03:29:38;;;;;;;27.30;18.17;;;3.80;99.90;;;;;;5055024;28;20468;-82
2024/02/13 03:32:04;;;;;;;30.30;17.93;;;3.90;99.90;;;;;;5053589;28;20019;-82
2024/02/13 03:34:30;;;;;;;28.97;17.10;;;3.80;99.90;;;;;;5055442;28;20072;-82
2024/02/13 03:36:56;;;;;;;26.17;17.17;;;3.80;99.90;;;;;;5053621;28;20442;-82
2024/02/13 03:39:23;;;;;;;28.43;18.47;;;3.80;99.90;;;;;;5054393;28;20029;-82
2024/02/13 03:41:49;;;;;;;26.00;16.87;;;3.80;99.90;;;;;;5036824;28;20488;-82
2024/02/13 03:44:15;;;;;;;24.23;16.43;;;3.80;99.90;;;;;;5036936;28;20116;-82
2024/02/13 03:46:42;;;;;;;23.53;16.20;;;3.80;99.90;;;;;;5054660;28;20146;-82
2024/02/13 03:49:08;;;;;;;23.87;16.33;;;3.80;99.90;;;;;;5054959;28;20025;-82
2024/02/13 03:51:40;;;;;;;26.20;15.67;;;3.80;99.90;;;;;;5054602;28;20035;-82
2024/02/13 03:54:07;;;;;;;26.80;16.10;;;3.80;99.90;;;;;;5053300;28;20021;-82
2024/02/13 03:56:33;;;;;;;27.60;16.47;;;3.70;99.90;;;;;;5036720;28;20025;-82
2024/02/13 03:58:59;;;;;;;28.57;16.67;;;3.70;99.90;;;;;;5036262;28;20021;-82
2024/02/13 04:01:25;;;;;;;28.77;17.23;;;3.70;99.90;;;;;;5054448;28;20037;-82
2024/02/13 04:03:50;;;;;;;26.43;16.97;;;3.60;99.90;;;;;;5036953;28;20020;-83
2024/02/13 04:06:16;;;;;;;26.07;16.83;;;3.70;99.90;;;;;;5036074;28;20021;-82
2024/02/13 04:08:45;;;;;;;27.67;17.03;;;3.70;99.90;;;;;;5036086;28;20021;-82
2024/02/13 04:11:12;;;;;;;26.73;16.40;;;3.70;99.90;;;;;;5052910;28;20044;-82
2024/02/13 04:13:38;;;;;;;27.03;15.90;;;3.60;99.90;;;;;;5054383;28;20494;-82
2024/02/13 04:16:07;;;;;;;28.27;17.57;;;3.70;99.90;;;;;;5053937;28;20025;-82
2024/02/13 04:18:35;;;;;;;28.63;17.07;;;3.60;99.90;;;;;;5036129;28;20017;-81
2024/02/13 04:21:01;;;;;;;28.13;16.67;;;3.70;99.90;;;;;;5035810;28;20083;-81
2024/02/13 04:23:27;;;;;;;25.13;15.13;;;3.60;99.90;;;;;;5052535;28;20017;-82
2024/02/13 04:25:53;;;;;;;28.17;15.83;;;3.60;99.90;;;;;;5053795;28;20021;-82
2024/02/13 04:28:21;;;;;;;27.30;15.60;;;3.60;99.90;;;;;;5035734;28;20021;-82
2024/02/13 04:30:47;;;;;;;26.77;16.33;;;3.70;99.90;;;;;;5035867;28;20020;-81
2024/02/13 04:33:13;;;;;;;25.97;15.47;;;3.60;99.90;;;;;;5053505;28;20056;-81
2024/02/13 04:35:39;;;;;;;22.37;15.53;;;3.80;99.90;;;;;;5053431;28;20341;-81
2024/02/13 04:38:05;;;;;;;26.50;15.23;;;3.80;99.90;;;;;;5035496;28;20033;-81
2024/02/13 04:40:34;;;;;;;25.63;16.23;;;3.60;99.90;;;;;;5054036;28;20038;-82
2024/02/13 04:43:00;;;;;;;25.17;15.57;;;3.60;99.90;;;;;;5035728;28;20021;-81
2024/02/13 04:45:29;;;;;;;29.50;16.27;;;3.60;99.90;;;;;;5035573;28;20126;-82
2024/02/13 04:47:55;;;;;;;25.00;15.03;;;3.60;99.90;;;;;;5035350;28;20027;-81
2024/02/13 04:50:20;;;;;;;29.23;15.73;;;3.60;99.90;;;;;;5035644;28;20116;-81
2024/02/13 04:52:46;;;;;;;27.00;15.13;;;3.60;99.90;;;;;;5035608;28;20479;-81
2024/02/13 04:55:13;;;;;;;24.43;15.50;;;3.60;99.90;;;;;;5052328;28;20017;-82
2024/02/13 04:57:38;;;;;;;30.57;16.00;;;3.60;99.90;;;;;;5035271;28;20024;-82
2024/02/13 05:00:16;;;;;;;28.60;16.73;;;3.60;99.90;;;;;;5052989;28;20033;-82
2024/02/13 05:02:46;;;;;;;27.73;16.77;;;3.60;99.90;;;;;;5035259;28;20017;-81
2024/02/13 05:07:56;;;;;;;25.33;16.00;;;3.60;99.90;;;;;;5053887;28;20068;-82
2024/02/13 05:10:22;;;;;;;26.23;15.60;;;3.60;99.90;;;;;;5052170;28;20025;-81
2024/02/13 05:12:48;;;;;;;30.30;17.03;;;3.60;99.90;;;;;;5053039;28;20433;-82
2024/02/13 05:15:14;;;;;;;26.13;16.47;;;3.60;99.90;;;;;;5035046;28;20124;-81
2024/02/13 05:17:39;;;;;;;24.77;16.00;;;3.60;99.90;;;;;;5052330;28;20041;-82
2024/02/13 05:20:11;;;;;;;26.80;16.40;;;3.60;99.90;;;;;;5052767;28;20032;-82
2024/02/13 05:22:37;;;;;;;27.73;16.57;;;3.60;99.90;;;;;;5035089;28;20067;-82
2024/02/13 05:25:03;;;;;;;28.03;16.50;;;3.60;99.90;;;;;;5034911;28;20500;-82
2024/02/13 05:27:29;;;;;;;26.07;15.53;;;3.60;99.90;;;;;;5034899;28;20021;-81
2024/02/13 05:29:55;;;;;;;24.63;15.63;;;3.60;99.90;;;;;;5035061;28;20021;-82
2024/02/13 05:32:21;;;;;;;25.20;15.40;;;3.60;99.90;;;;;;5051735;28;20091;-81
2024/02/13 05:34:46;;;;;;;26.57;15.47;;;3.70;99.90;;;;;;5052631;28;20473;-82
2024/02/13 05:37:12;;;;;;;24.83;15.30;;;3.60;99.90;;;;;;5052995;28;20025;-82
2024/02/13 05:39:38;;;;;;;29.00;15.87;;;3.60;99.90;;;;;;5034475;28;20451;-82
2024/02/13 05:42:04;;;;;;;25.40;14.60;;;3.60;99.90;;;;;;5052565;28;20096;-82
2024/02/13 05:44:29;;;;;;;27.80;15.10;;;3.60;99.90;;;;;;5052432;28;20021;-81
2024/02/13 05:46:56;;;;;;;23.37;15.40;;;3.70;99.90;;;;;;5052533;28;20096;-81
2024/02/13 05:49:22;;;;;;;21.33;14.13;;;3.50;99.90;;;;;;5051295;28;20111;-81
2024/02/13 05:51:48;;;;;;;28.00;14.27;;;3.60;99.90;;;;;;5034607;28;20052;-81
2024/02/13 05:54:18;;;;;;;27.20;14.83;;;3.60;99.90;;;;;;5034748;28;20025;-81
2024/02/13 05:56:45;;;;;;;29.23;14.90;;;3.50;99.90;;;;;;5052240;28;20021;-81
2024/02/13 05:59:10;;;;;;;24.63;14.40;;;3.50;99.90;;;;;;5034511;28;20055;-81
2024/02/13 06:01:36;;;;;;;21.87;13.00;;;3.50;99.90;;;;;;5052569;28;20060;-81
2024/02/13 06:04:05;;;;;;;22.33;13.80;;;3.50;99.90;;;;;;5052520;28;20021;-81
2024/02/13 06:06:32;;;;;;;24.07;14.77;;;3.50;99.90;;;;;;5052676;28;20477;-81
2024/02/13 06:08:58;;;;;;;22.20;13.93;;;3.60;99.90;;;;;;5052035;28;20013;-81
2024/02/13 06:11:25;;;;;;;26.60;14.83;;;3.60;99.90;;;;;;5033960;28;20036;-82
2024/02/13 06:13:51;;;;;;;25.37;14.33;;;3.50;99.90;;;;;;5051940;28;20420;-83
2024/02/13 06:16:17;;;;;;;25.03;13.87;;;3.50;99.90;;;;;;5034719;28;20554;-83
2024/02/13 06:18:47;;;;;;;24.77;14.10;;;3.50;99.90;;;;;;5033975;28;20388;-83
2024/02/13 06:21:13;;;;;;;26.03;15.03;;;3.50;99.90;;;;;;5034318;28;20033;-83
2024/02/13 06:23:41;;;;;;;27.60;14.40;;;3.50;99.90;;;;;;5052047;28;20428;-82
2024/02/13 06:26:08;;;;;;;23.20;14.33;;;3.50;99.90;;;;;;5044582;28;20020;-82
2024/02/13 06:28:33;;;;;;;23.03;13.73;;;3.50;99.90;;;;;;5038249;28;20036;-83
2024/02/13 06:30:59;;;;;;;29.50;14.10;;;3.50;99.90;;;;;;5022632;28;20021;-82
2024/02/13 06:33:25;;;;;;;22.67;13.37;;;3.50;99.90;;;;;;5033156;28;20099;-83
2024/02/13 06:35:51;;;;;;;25.30;13.00;;;3.50;99.90;;;;;;5037988;28;20017;-82
2024/02/13 06:38:16;;;;;;;25.70;13.63;;;3.60;99.90;;;;;;5038823;28;20393;-82
2024/02/13 06:40:43;;;;;;;30.87;13.47;;;3.60;99.90;;;;;;5038997;28;20116;-83
2024/02/13 06:43:08;;;;;;;24.27;14.27;;;3.60;99.90;;;;;;5037751;28;20093;-82
2024/02/13 06:45:34;;;;;;;27.07;12.67;;;3.60;99.90;;;;;;5038809;28;20111;-82
2024/02/13 06:48:01;;;;;;;23.37;12.73;;;3.60;99.90;;;;;;5037628;28;20125;-82
2024/02/13 06:50:27;;;;;;;24.50;12.67;;;3.60;99.90;;;;;;5038098;28;20036;-82
2024/02/13 06:52:54;;;;;;;23.43;12.97;;;3.50;99.90;;;;;;5038065;28;20013;-82
2024/02/13 06:55:20;;;;;;;22.70;12.37;;;3.50;99.90;;;;;;5056042;28;20024;-83
2024/02/13 06:57:46;;;;;;;22.13;12.00;;;3.60;99.90;;;;;;5037599;28;20028;-82
2024/02/13 07:00:13;;;;;;;19.70;11.60;;;3.80;99.90;;;;;;5037879;28;20029;-82
2024/02/13 07:02:42;;;;;;;19.17;10.67;;;3.60;99.90;;;;;;5037604;28;20389;-82
2024/02/13 07:05:10;;;;;;;23.27;11.73;;;3.60;99.90;;;;;;5055527;28;20013;-82
2024/02/13 07:07:37;;;;;;;20.83;11.30;;;3.70;99.90;;;;;;5037461;28;20385;-82
2024/02/13 07:10:03;;;;;;;18.47;10.47;;;3.70;99.90;;;;;;5056038;28;20020;-82
2024/02/13 07:12:29;;;;;;;24.27;11.17;;;3.70;99.90;;;;;;5055297;28;20063;-84
2024/02/13 07:14:55;;;;;;;20.37;10.37;;;3.70;99.90;;;;;;5032891;28;20066;-85
2024/02/13 07:17:22;;;;;;;18.30;9.80;;;3.60;99.90;;;;;;5017287;28;20045;-84
2024/02/13 07:19:47;;;;;;;19.67;10.30;;;3.70;99.90;;;;;;5033711;28;20473;-84
2024/02/13 07:22:14;;;;;;;18.30;10.00;;;3.70;99.90;;;;;;5035396;28;20018;-84
2024/02/13 07:24:40;;;;;;;17.53;8.27;;;3.70;99.90;;;;;;5017464;28;20469;-84
2024/02/13 07:27:07;;;;;;;20.00;9.23;;;3.70;99.90;;;;;;5033873;28;20108;-84
2024/02/13 07:29:33;;;;;;;18.77;8.73;;;3.70;99.90;;;;;;5035140;28;20021;-85
2024/02/13 07:32:02;;;;;;;20.63;8.47;;;3.70;99.90;;;;;;5035094;28;20026;-84
2024/02/13 07:34:27;;;;;;;21.47;8.90;;;3.70;99.90;;;;;;5035115;28;20024;-84
2024/02/13 07:36:56;;;;;;;16.57;8.50;;;3.70;99.90;;;;;;5033773;28;20022;-84
2024/02/13 07:39:23;;;;;;;18.40;9.20;;;3.70;99.90;;;;;;5034885;28;20022;-84
2024/02/13 07:41:49;;;;;;;18.53;8.73;;;3.80;99.90;;;;;;5033169;28;20053;-84
2024/02/13 07:44:15;;;;;;;19.57;8.97;;;3.80;99.90;;;;;;5035045;28;20026;-84
2024/02/13 07:46:40;;;;;;;17.87;9.37;;;3.80;99.90;;;;;;5033262;28;20032;-85
2024/02/13 07:49:07;;;;;;;21.93;8.47;;;3.80;99.90;;;;;;5034940;28;20030;-84
2024/02/13 07:51:33;;;;;;;17.70;8.03;;;3.90;99.90;;;;;;5033581;28;20029;-84
2024/02/13 07:53:59;;;;;;;16.03;7.67;;;3.80;99.90;;;;;;5035148;28;20036;-84
2024/02/13 07:56:28;;;;;;;19.80;8.10;;;3.90;99.90;;;;;;5033619;28;20033;-85
2024/02/13 07:58:59;;;;;;;19.17;8.40;;;4.00;99.90;;;;;;5035203;28;20021;-83
2024/02/13 08:01:25;;;;;;;17.33;7.97;;;4.00;99.90;;;;;;5034690;28;20381;-85
2024/02/13 08:03:52;;;;;;;14.80;6.90;;;4.00;99.90;;;;;;5034958;28;20030;-84
2024/02/13 08:06:18;;;;;;;12.07;6.53;;;4.10;99.90;;;;;;5032767;28;20025;-84
2024/02/13 08:08:45;;;;;;;13.10;7.47;;;4.00;99.90;;;;;;5034684;28;20029;-85
2024/02/13 08:11:13;;;;;;;17.57;7.73;;;4.20;99.90;;;;;;5033263;28;20082;-84
2024/02/13 08:13:39;;;;;;;16.03;7.03;;;4.20;99.90;;;;;;5034474;28;20017;-85
2024/02/13 08:16:06;;;;;;;15.17;6.67;;;4.10;99.90;;;;;;5033988;28;20080;-84
2024/02/13 08:18:34;;;;;;;15.40;6.60;;;4.20;99.90;;;;;;5033985;28;20038;-84
2024/02/13 08:21:01;;;;;;;15.67;7.00;;;4.30;99.90;;;;;;5045652;28;20465;-85
2024/02/13 08:23:27;;;;;;;15.33;6.03;;;4.40;99.90;;;;;;5034315;28;20025;-85
2024/02/13 08:25:52;;;;;;;17.17;6.63;;;4.40;99.90;;;;;;5016699;28;20116;-84
2024/02/13 08:28:19;;;;;;;15.10;6.23;;;4.40;99.90;;;;;;5033692;28;20021;-84
2024/02/13 08:30:48;;;;;;;14.97;7.13;;;4.50;99.90;;;;;;5016498;28;20022;-85
2024/02/13 08:33:15;;;;;;;14.13;6.00;;;4.50;99.90;;;;;;5016364;28;20052;-84
2024/02/13 08:35:42;;;;;;;19.53;6.70;;;4.50;99.90;;;;;;5034063;28;20469;-84
2024/02/13 08:38:08;;;;;;;16.17;6.00;;;4.60;99.90;;;;;;5034205;28;20018;-85
2024/02/13 08:40:34;;;;;;;11.63;5.47;;;4.70;99.90;;;;;;5033715;28;20033;-84
2024/02/13 08:43:00;;;;;;;13.40;5.00;;;4.70;99.90;;;;;;5033640;28;20021;-85
2024/02/13 08:45:26;;;;;;;9.97;4.77;;;4.80;99.90;;;;;;5033764;28;20401;-85
2024/02/13 08:47:51;;;;;;;12.87;5.17;;;4.80;99.90;;;;;;5015735;28;20028;-85
2024/02/13 08:50:17;;;;;;;11.13;4.13;;;4.90;99.90;;;;;;5032597;28;20048;-84
2024/02/13 08:52:43;;;;;;;17.53;5.13;;;5.00;99.90;;;;;;5034091;28;20096;-84
2024/02/13 08:55:09;;;;;;;11.37;4.63;;;5.00;99.90;;;;;;5032553;28;20390;-85
2024/02/13 08:57:37;;;;;;;20.03;5.23;;;5.00;99.90;;;;;;5033302;28;20489;-85
2024/02/13 09:00:05;;;;;;;13.57;4.67;;;5.10;99.90;;;;;;5033367;28;20029;-85
2024/02/13 09:02:32;;;;;;;16.27;4.20;;;5.20;99.90;;;;;;5015954;28;20018;-84
2024/02/13 09:04:58;;;;;;;13.17;4.43;;;5.20;99.90;;;;;;5015918;28;20028;-84
2024/02/13 09:07:24;;;;;;;9.17;4.37;;;5.20;99.90;;;;;;5033487;28;20018;-85
2024/02/13 09:09:50;;;;;;;11.80;4.47;;;5.30;99.90;;;;;;5033356;28;20025;-85
2024/02/13 09:12:16;;;;;;;15.03;4.17;;;5.30;99.90;;;;;;5031952;28;20037;-84
2024/02/13 09:14:41;;;;;;;9.23;3.53;;;5.40;99.90;;;;;;5033562;28;20109;-84
2024/02/13 09:17:08;;;;;;;11.63;5.10;;;5.40;99.90;;;;;;5033485;28;20056;-84
2024/02/13 09:19:33;;;;;;;13.13;4.37;;;5.50;99.90;;;;;;5033205;28;20025;-85
2024/02/13 09:21:59;;;;;;;11.27;3.97;;;5.60;99.90;;;;;;5015503;28;20372;-84
2024/02/13 09:24:27;;;;;;;15.63;4.30;;;5.60;99.90;;;;;;5033220;28;20041;-85
2024/02/13 09:26:53;;;;;;;11.60;4.03;;;5.70;99.90;;;;;;5032007;28;20065;-84
2024/02/13 09:29:19;;;;;;;12.33;3.67;;;5.80;99.90;;;;;;5015511;28;20385;-84
2024/02/13 09:31:44;;;;;;;10.80;3.53;;;5.80;99.90;;;;;;5031691;28;20116;-84
2024/02/13 09:34:13;;;;;;;8.83;3.50;;;6.00;99.90;;;;;;5033024;28;20516;-84
2024/02/13 09:36:38;;;;;;;13.60;3.70;;;6.10;99.90;;;;;;5033287;28;20087;-85
2024/02/13 09:39:04;;;;;;;14.03;4.10;;;6.10;99.90;;;;;;5015051;28;20029;-84
2024/02/13 09:41:31;;;;;;;11.00;4.13;;;6.20;99.90;;;;;;5033390;28;20025;-85
2024/02/13 09:43:59;;;;;;;10.77;4.07;;;6.40;99.90;;;;;;5015572;28;20377;-84
2024/02/13 09:46:26;;;;;;;15.77;3.90;;;6.50;99.90;;;;;;5032906;28;20021;-84
2024/02/13 09:48:55;;;;;;;10.67;3.07;;;6.70;99.90;;;;;;5014864;28;20106;-83
2024/02/13 09:51:23;;;;;;;12.00;3.40;;;6.80;99.90;;;;;;5033103;28;20100;-85
2024/02/13 09:53:50;;;;;;;7.87;3.30;;;6.90;99.90;;;;;;5015263;28;20108;-85
2024/02/13 09:56:18;;;;;;;12.47;3.30;;;7.00;99.90;;;;;;5032729;28;20022;-85
2024/02/13 09:58:47;;;;;;;13.90;4.07;;;7.10;99.90;;;;;;5032225;28;20036;-85
2024/02/13 10:01:13;;;;;;;8.83;2.97;;;7.20;99.90;;;;;;5032707;28;20036;-85
2024/02/13 10:03:39;;;;;;;12.33;3.10;;;7.30;99.90;;;;;;5032547;28;20025;-84
2024/02/13 10:06:06;;;;;;;11.00;3.03;;;7.30;99.90;;;;;;5036475;28;20080;-84
2024/02/13 10:08:34;;;;;;;9.50;3.07;;;7.50;99.90;;;;;;5019134;28;20017;-84
2024/02/13 10:11:04;;;;;;;9.63;3.87;;;7.50;99.90;;;;;;5036874;28;20037;-83
2024/02/13 10:13:40;;;;;;;8.87;2.50;;;7.70;99.90;;;;;;5036518;28;20461;-85
2024/02/13 10:16:20;;;;;;;10.07;2.27;;;8.00;99.90;;;;;;5018873;28;20041;-84
2024/02/13 10:19:02;;;;;;;11.18;2.30;;;8.40;99.90;;;;;;5036894;28;20032;-84
2024/02/13 10:21:29;;;;;;;6.63;2.22;;;9.00;99.90;;;;;;5036304;28;20026;-85
2024/02/13 10:24:15;;;;;;;10.35;2.45;;;9.40;99.90;;;;;;5036284;28;20022;-85
2024/02/13 10:26:41;;;;;;;5.88;1.73;;;9.90;99.90;;;;;;5036819;28;20021;-85
2024/02/13 10:29:07;;;;;;;6.65;1.48;;;10.30;99.90;;;;;;5018877;28;20478;-85
2024/02/13 10:31:36;;;;;;;8.25;2.13;;;10.70;99.90;;;;;;5018495;28;20033;-85
2024/02/13 10:34:07;;;;;;;5.65;1.42;;;11.10;99.90;;;;;;5036420;28;20045;-85
2024/02/13 10:36:42;;;;;;;6.75;1.55;;;11.70;99.90;;;;;;5036276;28;20037;-86
2024/02/13 10:39:12;;;;;;;5.63;1.42;;;12.30;99.90;;;;;;5047411;28;20168;-85
2024/02/13 10:41:44;;;;;;;6.30;1.30;;;12.80;99.90;;;;;;5018570;28;20033;-85
2024/02/13 10:44:13;;;;;;;7.85;1.75;;;13.20;99.90;;;;;;5036665;28;20374;-84
2024/02/13 10:46:40;;;;;;;5.15;1.60;;;13.50;99.90;;;;;;5036059;28;20048;-85
2024/02/13 10:49:23;;;;;;;8.50;1.77;;;13.70;99.90;;;;;;5018372;28;20104;-85
2024/02/13 10:51:50;;;;;;;8.02;2.00;;;14.00;99.90;;;;;;5036080;28;20033;-85
2024/02/13 10:54:16;;;;;;;9.38;2.13;;;14.30;99.90;;;;;;5017862;28;20420;-85
2024/02/13 10:56:41;;;;;;;5.85;1.60;;;14.40;99.90;;;;;;5018374;28;20021;-85
2024/02/13 10:59:08;;;;;;;5.95;1.38;;;14.60;99.90;;;;;;5035913;28;20049;-85
2024/02/13 11:01:36;;;;;;;7.93;1.60;;;14.80;99.90;;;;;;5018103;28;20029;-86
2024/02/13 11:04:02;;;;;;;6.07;1.55;;;15.10;99.90;;;;;;5018191;28;20461;-85
2024/02/13 11:06:28;;;;;;;7.43;1.45;;;15.40;99.90;;;;;;5035662;28;20017;-86
2024/02/13 11:08:57;;;;;;;6.50;1.40;;;15.80;98.90;;;;;;5035826;28;20025;-82
2024/02/13 11:11:24;;;;;;;7.88;1.52;;;16.00;96.00;;;;;;5018895;28;20029;-86
2024/02/13 11:13:51;;;;;;;5.88;2.03;;;16.30;94.60;;;;;;5036373;28;20026;-85
2024/02/13 11:16:18;;;;;;;6.28;1.30;;;16.70;94.40;;;;;;5034678;28;20043;-83
2024/02/13 11:18:50;;;;;;;5.82;1.42;;;17.10;91.10;;;;;;5035217;28;20389;-86
2024/02/13 11:21:20;;;;;;;5.00;1.25;;;17.20;86.50;;;;;;5017812;28;20063;-85
2024/02/13 11:24:03;;;;;;;5.80;1.60;;;17.10;85.60;;;;;;5017849;28;20028;-85
2024/02/13 11:26:32;;;;;;;6.13;1.17;;;17.10;80.50;;;;;;5014939;28;20025;-85
2024/02/13 11:29:09;;;;;;;7.55;1.20;;;17.20;80.30;;;;;;5017778;28;20029;-84
2024/02/13 11:31:35;;;;;;;5.95;1.30;;;17.40;79.40;;;;;;5035237;28;20029;-85
2024/02/13 11:34:08;;;;;;;5.78;1.23;;;17.70;79.00;;;;;;5034954;28;20041;-84
2024/02/13 11:36:34;;;;;;;5.47;1.25;;;17.90;78.60;;;;;;5035078;28;20022;-85
2024/02/13 11:39:07;;;;;;;4.82;1.02;;;18.20;76.50;;;;;;5034937;28;20057;-85
2024/02/13 11:41:36;;;;;;;3.13;1.20;;;18.20;74.20;;;;;;5035563;28;20025;-85
2024/02/13 11:44:07;;;;;;;3.58;1.10;;;18.20;72.40;;;;;;5035536;28;20021;-84
2024/02/13 11:46:37;;;;;;;6.55;1.17;;;18.30;72.80;;;;;;5035177;28;20026;-87
2024/02/13 11:49:07;;;;;;;5.35;1.30;;;18.30;72.10;;;;;;5016748;28;20028;-85
2024/02/13 11:51:35;;;;;;;5.75;1.45;;;18.30;71.60;;;;;;5016947;28;20022;-84
2024/02/13 11:54:00;;;;;;;6.90;1.83;;;18.20;68.00;;;;;;5034941;28;20424;-84
2024/02/13 11:56:26;;;;;;;7.72;1.30;;;18.10;69.20;;;;;;5034838;28;20026;-85
2024/02/13 11:58:56;;;;;;;6.90;0.98;;;18.30;69.40;;;;;;5034751;28;20381;-86
2024/02/13 12:01:25;;;;;;;5.20;1.00;;;18.50;69.60;;;;;;5034405;28;20401;-85
2024/02/13 12:03:52;;;;;;;6.22;1.30;;;18.60;66.20;;;;;;5016833;28;20032;-83
2024/02/13 12:06:20;;;;;;;6.15;1.52;;;18.50;64.70;;;;;;5035036;28;20492;-85
2024/02/13 12:08:47;;;;;;;5.10;1.30;;;18.30;64.80;;;;;;5016677;28;20029;-86
2024/02/13 12:11:13;;;;;;;5.57;1.38;;;18.30;65.10;;;;;;5034466;28;20026;-85
2024/02/13 12:13:40;;;;;;;6.93;1.42;;;18.20;63.60;;;;;;5034360;28;20060;-85
2024/02/13 12:16:07;;;;;;;5.72;1.45;;;18.20;63.90;;;;;;5033224;28;20133;-85
2024/02/13 12:18:32;;;;;;;6.20;1.30;;;18.10;63.20;;;;;;5034252;28;20033;-84
2024/02/13 12:20:59;;;;;;;3.97;1.15;;;18.30;64.70;;;;;;5032914;28;20486;-86
2024/02/13 12:23:26;;;;;;;4.43;1.40;;;18.60;63.80;;;;;;5034379;28;20067;-85
2024/02/13 12:26:06;;;;;;;5.93;1.00;;;18.90;64.00;;;;;;5034460;28;20060;-84
2024/02/13 12:28:32;;;;;;;9.10;1.10;;;19.30;62.20;;;;;;5033815;28;20532;-85
2024/02/13 12:31:02;;;;;;;4.15;1.08;;;19.50;62.70;;;;;;5016331;28;20108;-85
2024/02/13 12:33:28;;;;;;;6.93;1.20;;;19.80;61.60;;;;;;5034413;28;20107;-87
2024/02/13 12:36:01;;;;;;;4.63;1.00;;;19.90;60.70;;;;;;5034131;28;20022;-86
2024/02/13 12:38:29;;;;;;;6.15;0.98;;;19.60;58.30;;;;;;5034023;28;20100;-83
2024/02/13 12:40:56;;;;;;;5.18;1.08;;;19.20;57.80;;;;;;5034144;28;20038;-84
2024/02/13 12:43:27;;;;;;;3.70;1.10;;;19.10;59.20;;;;;;5016844;28;20025;-86
2024/02/13 12:46:02;;;;;;;4.15;0.80;;;19.20;60.10;;;;;;5017620;28;20421;-85